sensor_id;sensor_type;location;lat;lon;timestamp;temperature;humidity
15072;DHT22;7635;56.696;13.002;2023-05-16T00:00:51;12.00;99.90
15072;DHT22;7635;56.696;13.002;2023-05-16T00:03:18;12.00;99.90
15072;DHT22;7635;56.696;13.002;2023-05-16T00:05:45;11.90;99.90
15072;DHT22;7635;56.696;13.002;2023-05-16T00:08:13;11.80;99.90
15072;DHT22;7635;56.696;13.002;2023-05-16T00:10:40;11.80;99.90
15072;DHT22;7635;56.696;13.002;2023-05-16T00:13:07;11.70;99.90
15072;DHT22;7635;56.696;13.002;2023-05-16T00:15:34;11.60;99.90
15072;DHT22;7635;56.696;13.002;2023-05-16T00:18:03;11.60;99.90
15072;DHT22;7635;56.696;13.002;2023-05-16T00:20:29;11.60;99.90
15072;DHT22;7635;56.696;13.002;2023-05-16T00:22:56;11.60;99.90
15072;DHT22;7635;56.696;13.002;2023-05-16T00:25:26;11.50;99.90
15072;DHT22;7635;56.696;13.002;2023-05-16T00:27:54;11.50;99.90
15072;DHT22;7635;56.696;13.002;2023-05-16T00:30:20;11.40;99.90
15072;DHT22;7635;56.696;13.002;2023-05-16T00:32:47;11.40;99.90
15072;DHT22;7635;56.696;13.002;2023-05-16T00:35:14;11.40;99.90
15072;DHT22;7635;56.696;13.002;2023-05-16T00:37:41;11.30;99.90
15072;DHT22;7635;56.696;13.002;2023-05-16T00:40:08;11.30;99.90
15072;DHT22;7635;56.696;13.002;2023-05-16T00:42:37;11.20;99.90
15072;DHT22;7635;56.696;13.002;2023-05-16T00:45:05;11.20;99.90
15072;DHT22;7635;56.696;13.002;2023-05-16T00:47:32;11.20;99.90
15072;DHT22;7635;56.696;13.002;2023-05-16T00:49:58;11.20;99.90
15072;DHT22;7635;56.696;13.002;2023-05-16T00:52:25;11.20;99.90
15072;DHT22;7635;56.696;13.002;2023-05-16T00:54:52;11.20;99.90
15072;DHT22;7635;56.696;13.002;2023-05-16T00:57:19;11.20;99.90
15072;DHT22;7635;56.696;13.002;2023-05-16T00:59:48;11.20;99.90
15072;DHT22;7635;56.696;13.002;2023-05-16T01:02:15;11.20;99.90
15072;DHT22;7635;56.696;13.002;2023-05-16T01:04:42;11.30;99.90
15072;DHT22;7635;56.696;13.002;2023-05-16T01:07:09;11.30;99.90
15072;DHT22;7635;56.696;13.002;2023-05-16T01:09:36;11.30;99.90
15072;DHT22;7635;56.696;13.002;2023-05-16T01:12:08;11.30;99.90
15072;DHT22;7635;56.696;13.002;2023-05-16T01:14:41;11.30;99.90
15072;DHT22;7635;56.696;13.002;2023-05-16T01:17:19;11.30;99.90
15072;DHT22;7635;56.696;13.002;2023-05-16T01:19:56;11.20;99.90
15072;DHT22;7635;56.696;13.002;2023-05-16T01:22:33;11.20;99.90
15072;DHT22;7635;56.696;13.002;2023-05-16T01:25:09;11.20;99.90
15072;DHT22;7635;56.696;13.002;2023-05-16T01:27:39;11.20;99.90
15072;DHT22;7635;56.696;13.002;2023-05-16T01:30:14;11.20;99.90
15072;DHT22;7635;56.696;13.002;2023-05-16T01:32:41;11.10;99.90
15072;DHT22;7635;56.696;13.002;2023-05-16T01:35:09;11.00;99.90
15072;DHT22;7635;56.696;13.002;2023-05-16T01:37:41;11.00;99.90
15072;DHT22;7635;56.696;13.002;2023-05-16T01:40:14;11.00;99.90
15072;DHT22;7635;56.696;13.002;2023-05-16T01:42:46;10.90;99.90
15072;DHT22;7635;56.696;13.002;2023-05-16T01:45:19;10.90;99.90
15072;DHT22;7635;56.696;13.002;2023-05-16T01:47:51;10.80;99.90
15072;DHT22;7635;56.696;13.002;2023-05-16T01:50:21;10.80;99.90
15072;DHT22;7635;56.696;13.002;2023-05-16T01:52:55;10.80;99.90
15072;DHT22;7635;56.696;13.002;2023-05-16T01:55:28;10.70;99.90
15072;DHT22;7635;56.696;13.002;2023-05-16T01:57:58;10.70;99.90
15072;DHT22;7635;56.696;13.002;2023-05-16T02:00:26;10.60;99.90
15072;DHT22;7635;56.696;13.002;2023-05-16T02:02:53;10.50;99.90
15072;DHT22;7635;56.696;13.002;2023-05-16T02:05:20;10.50;99.90
15072;DHT22;7635;56.696;13.002;2023-05-16T02:07:47;10.40;99.90
15072;DHT22;7635;56.696;13.002;2023-05-16T02:10:14;10.40;99.90
15072;DHT22;7635;56.696;13.002;2023-05-16T02:12:40;10.30;99.90
15072;DHT22;7635;56.696;13.002;2023-05-16T02:15:09;10.30;99.90
15072;DHT22;7635;56.696;13.002;2023-05-16T02:17:36;10.30;99.90
15072;DHT22;7635;56.696;13.002;2023-05-16T02:20:04;10.30;99.90
15072;DHT22;7635;56.696;13.002;2023-05-16T02:22:34;10.30;99.90
15072;DHT22;7635;56.696;13.002;2023-05-16T02:25:01;10.20;99.90
15072;DHT22;7635;56.696;13.002;2023-05-16T02:27:28;10.20;99.90
15072;DHT22;7635;56.696;13.002;2023-05-16T02:29:55;10.20;99.90
15072;DHT22;7635;56.696;13.002;2023-05-16T02:32:23;10.10;99.90
15072;DHT22;7635;56.696;13.002;2023-05-16T02:34:50;10.10;99.90
15072;DHT22;7635;56.696;13.002;2023-05-16T02:37:17;10.00;99.90
15072;DHT22;7635;56.696;13.002;2023-05-16T02:39:44;10.00;99.90
15072;DHT22;7635;56.696;13.002;2023-05-16T02:42:11;9.90;99.90
15072;DHT22;7635;56.696;13.002;2023-05-16T02:44:38;9.90;99.90
15072;DHT22;7635;56.696;13.002;2023-05-16T02:47:05;9.90;99.90
15072;DHT22;7635;56.696;13.002;2023-05-16T02:49:33;9.90;99.90
15072;DHT22;7635;56.696;13.002;2023-05-16T02:52:00;9.90;99.90
15072;DHT22;7635;56.696;13.002;2023-05-16T02:54:27;9.90;99.90
15072;DHT22;7635;56.696;13.002;2023-05-16T02:56:54;9.80;99.90
15072;DHT22;7635;56.696;13.002;2023-05-16T02:59:20;9.80;99.90
15072;DHT22;7635;56.696;13.002;2023-05-16T03:01:47;9.80;99.90
15072;DHT22;7635;56.696;13.002;2023-05-16T03:04:14;9.80;99.90
15072;DHT22;7635;56.696;13.002;2023-05-16T03:06:42;9.80;99.90
15072;DHT22;7635;56.696;13.002;2023-05-16T03:09:09;9.80;99.90
15072;DHT22;7635;56.696;13.002;2023-05-16T03:11:35;9.90;99.90
15072;DHT22;7635;56.696;13.002;2023-05-16T03:14:02;9.90;99.90
15072;DHT22;7635;56.696;13.002;2023-05-16T03:16:30;9.90;99.90
15072;DHT22;7635;56.696;13.002;2023-05-16T03:18:57;9.80;99.90
15072;DHT22;7635;56.696;13.002;2023-05-16T03:21:24;9.80;99.90
15072;DHT22;7635;56.696;13.002;2023-05-16T03:23:52;9.80;99.90
15072;DHT22;7635;56.696;13.002;2023-05-16T03:26:19;9.80;99.90
15072;DHT22;7635;56.696;13.002;2023-05-16T03:28:47;9.80;99.90
15072;DHT22;7635;56.696;13.002;2023-05-16T03:31:13;9.80;99.90
15072;DHT22;7635;56.696;13.002;2023-05-16T03:33:40;9.80;99.90
15072;DHT22;7635;56.696;13.002;2023-05-16T03:36:08;9.70;99.90
15072;DHT22;7635;56.696;13.002;2023-05-16T03:38:35;9.70;99.90
15072;DHT22;7635;56.696;13.002;2023-05-16T03:41:03;9.80;99.90
15072;DHT22;7635;56.696;13.002;2023-05-16T03:43:30;9.80;99.90
15072;DHT22;7635;56.696;13.002;2023-05-16T03:45:57;9.80;99.90
15072;DHT22;7635;56.696;13.002;2023-05-16T03:48:23;9.80;99.90
15072;DHT22;7635;56.696;13.002;2023-05-16T03:50:50;9.80;99.90
15072;DHT22;7635;56.696;13.002;2023-05-16T03:53:17;9.90;99.90
15072;DHT22;7635;56.696;13.002;2023-05-16T03:55:43;9.90;99.90
15072;DHT22;7635;56.696;13.002;2023-05-16T03:58:11;9.90;99.90
15072;DHT22;7635;56.696;13.002;2023-05-16T04:00:38;9.90;99.90
15072;DHT22;7635;56.696;13.002;2023-05-16T04:03:05;9.90;99.90
15072;DHT22;7635;56.696;13.002;2023-05-16T04:05:32;9.90;99.90
15072;DHT22;7635;56.696;13.002;2023-05-16T04:07:58;9.90;99.90
15072;DHT22;7635;56.696;13.002;2023-05-16T04:10:25;9.90;99.90
15072;DHT22;7635;56.696;13.002;2023-05-16T04:12:52;10.00;99.90
15072;DHT22;7635;56.696;13.002;2023-05-16T04:15:20;10.00;99.90
15072;DHT22;7635;56.696;13.002;2023-05-16T04:17:48;10.00;99.90
15072;DHT22;7635;56.696;13.002;2023-05-16T04:20:15;10.10;99.90
15072;DHT22;7635;56.696;13.002;2023-05-16T04:22:41;10.10;99.90
15072;DHT22;7635;56.696;13.002;2023-05-16T04:25:09;10.10;99.90
15072;DHT22;7635;56.696;13.002;2023-05-16T04:27:35;10.20;99.90
15072;DHT22;7635;56.696;13.002;2023-05-16T04:30:03;10.20;99.90
15072;DHT22;7635;56.696;13.002;2023-05-16T04:32:31;10.20;99.90
15072;DHT22;7635;56.696;13.002;2023-05-16T04:34:59;10.30;99.90
15072;DHT22;7635;56.696;13.002;2023-05-16T04:37:26;10.30;99.90
15072;DHT22;7635;56.696;13.002;2023-05-16T04:39:53;10.40;99.90
15072;DHT22;7635;56.696;13.002;2023-05-16T04:42:20;10.40;99.90
15072;DHT22;7635;56.696;13.002;2023-05-16T04:44:46;10.40;99.90
15072;DHT22;7635;56.696;13.002;2023-05-16T04:47:13;10.50;99.90
15072;DHT22;7635;56.696;13.002;2023-05-16T04:49:41;10.50;99.90
15072;DHT22;7635;56.696;13.002;2023-05-16T04:52:08;10.60;99.90
15072;DHT22;7635;56.696;13.002;2023-05-16T04:54:36;10.60;99.90
15072;DHT22;7635;56.696;13.002;2023-05-16T04:57:03;10.70;99.90
15072;DHT22;7635;56.696;13.002;2023-05-16T04:59:30;10.70;99.90
15072;DHT22;7635;56.696;13.002;2023-05-16T05:01:57;10.70;99.90
15072;DHT22;7635;56.696;13.002;2023-05-16T05:04:24;10.80;99.90
15072;DHT22;7635;56.696;13.002;2023-05-16T05:06:52;10.80;99.90
15072;DHT22;7635;56.696;13.002;2023-05-16T05:09:19;10.80;99.90
15072;DHT22;7635;56.696;13.002;2023-05-16T05:11:45;10.80;99.90
15072;DHT22;7635;56.696;13.002;2023-05-16T05:14:12;10.80;99.90
15072;DHT22;7635;56.696;13.002;2023-05-16T05:16:39;10.90;99.90
15072;DHT22;7635;56.696;13.002;2023-05-16T05:19:06;10.90;99.90
15072;DHT22;7635;56.696;13.002;2023-05-16T05:21:33;11.00;99.90
15072;DHT22;7635;56.696;13.002;2023-05-16T05:24:01;11.10;99.90
15072;DHT22;7635;56.696;13.002;2023-05-16T05:26:28;11.20;99.90
15072;DHT22;7635;56.696;13.002;2023-05-16T05:28:55;11.30;99.90
15072;DHT22;7635;56.696;13.002;2023-05-16T05:31:22;11.40;99.90
15072;DHT22;7635;56.696;13.002;2023-05-16T05:33:49;11.40;99.90
15072;DHT22;7635;56.696;13.002;2023-05-16T05:36:15;11.40;99.90
15072;DHT22;7635;56.696;13.002;2023-05-16T05:38:42;11.50;99.90
15072;DHT22;7635;56.696;13.002;2023-05-16T05:41:10;11.70;99.90
15072;DHT22;7635;56.696;13.002;2023-05-16T05:43:38;11.90;99.90
15072;DHT22;7635;56.696;13.002;2023-05-16T05:46:06;12.10;99.90
15072;DHT22;7635;56.696;13.002;2023-05-16T05:48:33;12.20;99.90
15072;DHT22;7635;56.696;13.002;2023-05-16T05:50:59;12.30;99.90
15072;DHT22;7635;56.696;13.002;2023-05-16T05:53:26;12.30;99.90
15072;DHT22;7635;56.696;13.002;2023-05-16T05:55:53;12.40;99.90
15072;DHT22;7635;56.696;13.002;2023-05-16T05:58:22;12.50;99.90
15072;DHT22;7635;56.696;13.002;2023-05-16T06:00:48;12.70;99.90
15072;DHT22;7635;56.696;13.002;2023-05-16T06:03:15;12.90;99.90
15072;DHT22;7635;56.696;13.002;2023-05-16T06:05:42;13.00;99.90
15072;DHT22;7635;56.696;13.002;2023-05-16T06:08:09;13.20;99.90
15072;DHT22;7635;56.696;13.002;2023-05-16T06:10:36;13.40;99.90
15072;DHT22;7635;56.696;13.002;2023-05-16T06:13:02;13.50;99.90
15072;DHT22;7635;56.696;13.002;2023-05-16T06:15:30;13.70;99.90
15072;DHT22;7635;56.696;13.002;2023-05-16T06:17:57;14.00;99.90
15072;DHT22;7635;56.696;13.002;2023-05-16T06:20:24;14.30;99.90
15072;DHT22;7635;56.696;13.002;2023-05-16T06:22:51;14.60;99.90
15072;DHT22;7635;56.696;13.002;2023-05-16T06:25:17;15.10;99.90
15072;DHT22;7635;56.696;13.002;2023-05-16T06:27:44;15.20;99.90
15072;DHT22;7635;56.696;13.002;2023-05-16T06:30:11;15.20;99.90
15072;DHT22;7635;56.696;13.002;2023-05-16T06:32:39;15.10;99.90
15072;DHT22;7635;56.696;13.002;2023-05-16T06:35:07;14.90;99.90
15072;DHT22;7635;56.696;13.002;2023-05-16T06:37:33;14.80;99.90
15072;DHT22;7635;56.696;13.002;2023-05-16T06:40:00;14.80;99.90
15072;DHT22;7635;56.696;13.002;2023-05-16T06:42:27;14.70;99.90
15072;DHT22;7635;56.696;13.002;2023-05-16T06:44:54;14.70;99.90
15072;DHT22;7635;56.696;13.002;2023-05-16T06:47:21;14.70;99.90
15072;DHT22;7635;56.696;13.002;2023-05-16T06:49:49;14.80;99.90
15072;DHT22;7635;56.696;13.002;2023-05-16T06:52:16;15.00;99.90
15072;DHT22;7635;56.696;13.002;2023-05-16T06:54:43;15.10;99.90
15072;DHT22;7635;56.696;13.002;2023-05-16T06:57:09;15.10;99.90
15072;DHT22;7635;56.696;13.002;2023-05-16T06:59:36;15.00;99.90
15072;DHT22;7635;56.696;13.002;2023-05-16T07:02:03;14.90;99.90
15072;DHT22;7635;56.696;13.002;2023-05-16T07:04:30;14.70;99.90
15072;DHT22;7635;56.696;13.002;2023-05-16T07:06:58;14.60;99.90
15072;DHT22;7635;56.696;13.002;2023-05-16T07:09:25;14.50;99.90
15072;DHT22;7635;56.696;13.002;2023-05-16T07:11:52;14.50;99.90
15072;DHT22;7635;56.696;13.002;2023-05-16T07:14:18;14.40;99.90
15072;DHT22;7635;56.696;13.002;2023-05-16T07:16:45;14.50;99.90
15072;DHT22;7635;56.696;13.002;2023-05-16T07:19:12;14.50;99.90
15072;DHT22;7635;56.696;13.002;2023-05-16T07:21:39;14.70;99.90
15072;DHT22;7635;56.696;13.002;2023-05-16T07:24:07;14.80;99.90
15072;DHT22;7635;56.696;13.002;2023-05-16T07:26:34;15.00;99.90
15072;DHT22;7635;56.696;13.002;2023-05-16T07:29:01;15.30;99.90
15072;DHT22;7635;56.696;13.002;2023-05-16T07:31:28;15.50;99.90
15072;DHT22;7635;56.696;13.002;2023-05-16T07:33:55;15.70;99.90
15072;DHT22;7635;56.696;13.002;2023-05-16T07:36:22;15.90;99.90
15072;DHT22;7635;56.696;13.002;2023-05-16T07:38:49;16.00;99.90
15072;DHT22;7635;56.696;13.002;2023-05-16T07:41:17;16.00;99.90
15072;DHT22;7635;56.696;13.002;2023-05-16T07:43:44;16.00;99.90
15072;DHT22;7635;56.696;13.002;2023-05-16T07:46:10;16.00;99.90
15072;DHT22;7635;56.696;13.002;2023-05-16T07:48:38;16.00;99.90
15072;DHT22;7635;56.696;13.002;2023-05-16T07:51:05;15.90;99.90
15072;DHT22;7635;56.696;13.002;2023-05-16T07:53:32;15.90;99.90
15072;DHT22;7635;56.696;13.002;2023-05-16T07:55:59;15.80;99.90
15072;DHT22;7635;56.696;13.002;2023-05-16T07:58:27;15.80;99.90
15072;DHT22;7635;56.696;13.002;2023-05-16T08:00:54;15.80;99.90
15072;DHT22;7635;56.696;13.002;2023-05-16T08:03:20;15.80;99.90
15072;DHT22;7635;56.696;13.002;2023-05-16T08:05:47;15.90;99.90
15072;DHT22;7635;56.696;13.002;2023-05-16T08:08:14;15.90;99.90
15072;DHT22;7635;56.696;13.002;2023-05-16T08:10:41;15.90;99.90
15072;DHT22;7635;56.696;13.002;2023-05-16T08:13:08;15.90;99.90
15072;DHT22;7635;56.696;13.002;2023-05-16T08:15:36;15.80;99.90
15072;DHT22;7635;56.696;13.002;2023-05-16T08:18:03;15.70;99.90
15072;DHT22;7635;56.696;13.002;2023-05-16T08:20:31;15.70;99.90
15072;DHT22;7635;56.696;13.002;2023-05-16T08:22:58;15.60;99.90
15072;DHT22;7635;56.696;13.002;2023-05-16T08:25:25;15.50;99.90
15072;DHT22;7635;56.696;13.002;2023-05-16T08:27:51;15.50;99.90
15072;DHT22;7635;56.696;13.002;2023-05-16T08:30:18;15.50;99.90
15072;DHT22;7635;56.696;13.002;2023-05-16T08:32:46;15.40;99.90
15072;DHT22;7635;56.696;13.002;2023-05-16T08:35:13;15.30;99.90
15072;DHT22;7635;56.696;13.002;2023-05-16T08:37:40;15.10;99.90
15072;DHT22;7635;56.696;13.002;2023-05-16T08:40:09;15.00;99.90
15072;DHT22;7635;56.696;13.002;2023-05-16T08:42:36;15.00;99.90
15072;DHT22;7635;56.696;13.002;2023-05-16T08:45:03;15.00;99.90
15072;DHT22;7635;56.696;13.002;2023-05-16T08:47:31;15.10;99.90
15072;DHT22;7635;56.696;13.002;2023-05-16T08:50:02;15.30;99.90
15072;DHT22;7635;56.696;13.002;2023-05-16T08:52:30;15.60;99.90
15072;DHT22;7635;56.696;13.002;2023-05-16T08:55:01;15.90;99.90
15072;DHT22;7635;56.696;13.002;2023-05-16T08:57:31;16.20;99.90
15072;DHT22;7635;56.696;13.002;2023-05-16T08:59:59;16.40;99.90
15072;DHT22;7635;56.696;13.002;2023-05-16T09:02:26;16.60;99.90
15072;DHT22;7635;56.696;13.002;2023-05-16T09:04:53;16.70;99.90
15072;DHT22;7635;56.696;13.002;2023-05-16T09:07:24;17.00;99.90
15072;DHT22;7635;56.696;13.002;2023-05-16T09:09:50;17.10;99.90
15072;DHT22;7635;56.696;13.002;2023-05-16T09:12:19;17.00;99.90
15072;DHT22;7635;56.696;13.002;2023-05-16T09:14:46;16.90;99.90
15072;DHT22;7635;56.696;13.002;2023-05-16T09:17:13;16.70;99.90
15072;DHT22;7635;56.696;13.002;2023-05-16T09:19:41;16.60;99.90
15072;DHT22;7635;56.696;13.002;2023-05-16T09:22:10;16.50;99.90
15072;DHT22;7635;56.696;13.002;2023-05-16T09:24:39;16.30;99.90
15072;DHT22;7635;56.696;13.002;2023-05-16T09:27:07;16.20;99.90
15072;DHT22;7635;56.696;13.002;2023-05-16T09:29:34;16.10;99.90
15072;DHT22;7635;56.696;13.002;2023-05-16T09:32:04;16.00;99.90
15072;DHT22;7635;56.696;13.002;2023-05-16T09:34:37;15.90;99.90
15072;DHT22;7635;56.696;13.002;2023-05-16T09:37:05;15.90;99.90
15072;DHT22;7635;56.696;13.002;2023-05-16T09:39:32;15.90;99.90
15072;DHT22;7635;56.696;13.002;2023-05-16T09:42:00;16.00;99.90
15072;DHT22;7635;56.696;13.002;2023-05-16T09:44:27;16.10;99.90
15072;DHT22;7635;56.696;13.002;2023-05-16T09:46:54;16.20;99.90
15072;DHT22;7635;56.696;13.002;2023-05-16T09:49:21;16.40;99.90
15072;DHT22;7635;56.696;13.002;2023-05-16T09:51:49;16.70;99.90
15072;DHT22;7635;56.696;13.002;2023-05-16T09:54:28;16.80;99.90
15072;DHT22;7635;56.696;13.002;2023-05-16T09:56:56;17.00;99.90
15072;DHT22;7635;56.696;13.002;2023-05-16T09:59:24;17.10;99.90
15072;DHT22;7635;56.696;13.002;2023-05-16T10:01:52;17.00;99.90
15072;DHT22;7635;56.696;13.002;2023-05-16T10:04:19;16.90;99.90
15072;DHT22;7635;56.696;13.002;2023-05-16T10:06:47;16.90;99.90
15072;DHT22;7635;56.696;13.002;2023-05-16T10:09:17;16.90;99.90
15072;DHT22;7635;56.696;13.002;2023-05-16T10:11:45;16.80;99.90
15072;DHT22;7635;56.696;13.002;2023-05-16T10:14:13;16.80;99.90
15072;DHT22;7635;56.696;13.002;2023-05-16T10:16:46;16.60;99.90
15072;DHT22;7635;56.696;13.002;2023-05-16T10:19:15;16.80;99.90
15072;DHT22;7635;56.696;13.002;2023-05-16T10:21:47;17.10;99.90
15072;DHT22;7635;56.696;13.002;2023-05-16T10:24:19;17.30;99.90
15072;DHT22;7635;56.696;13.002;2023-05-16T10:26:48;17.30;99.90
15072;DHT22;7635;56.696;13.002;2023-05-16T10:29:16;17.50;99.90
15072;DHT22;7635;56.696;13.002;2023-05-16T10:31:45;17.90;99.90
15072;DHT22;7635;56.696;13.002;2023-05-16T10:34:14;18.20;99.90
15072;DHT22;7635;56.696;13.002;2023-05-16T10:36:42;18.30;99.90
15072;DHT22;7635;56.696;13.002;2023-05-16T10:39:10;18.30;99.90
15072;DHT22;7635;56.696;13.002;2023-05-16T10:41:37;18.10;99.90
15072;DHT22;7635;56.696;13.002;2023-05-16T10:44:12;18.00;99.90
15072;DHT22;7635;56.696;13.002;2023-05-16T10:46:39;17.90;99.90
15072;DHT22;7635;56.696;13.002;2023-05-16T10:49:20;17.90;99.90
15072;DHT22;7635;56.696;13.002;2023-05-16T10:52:02;17.90;99.90
15072;DHT22;7635;56.696;13.002;2023-05-16T10:54:34;17.60;99.90
15072;DHT22;7635;56.696;13.002;2023-05-16T10:57:04;17.50;99.90
15072;DHT22;7635;56.696;13.002;2023-05-16T10:59:40;17.50;99.90
15072;DHT22;7635;56.696;13.002;2023-05-16T11:02:29;17.60;99.90
15072;DHT22;7635;56.696;13.002;2023-05-16T11:05:00;17.50;99.90
15072;DHT22;7635;56.696;13.002;2023-05-16T11:07:31;17.40;99.90
15072;DHT22;7635;56.696;13.002;2023-05-16T11:10:04;17.20;99.90
15072;DHT22;7635;56.696;13.002;2023-05-16T11:12:51;17.00;99.90
15072;DHT22;7635;56.696;13.002;2023-05-16T11:15:24;16.90;99.90
15072;DHT22;7635;56.696;13.002;2023-05-16T11:18:06;16.90;99.90
15072;DHT22;7635;56.696;13.002;2023-05-16T11:20:36;16.90;99.90
15072;DHT22;7635;56.696;13.002;2023-05-16T11:23:19;17.00;99.90
15072;DHT22;7635;56.696;13.002;2023-05-16T11:25:48;17.10;99.90
15072;DHT22;7635;56.696;13.002;2023-05-16T11:28:17;17.40;99.90
15072;DHT22;7635;56.696;13.002;2023-05-16T11:30:47;17.50;99.90
15072;DHT22;7635;56.696;13.002;2023-05-16T11:33:14;17.70;99.90
15072;DHT22;7635;56.696;13.002;2023-05-16T11:35:43;17.80;99.90
15072;DHT22;7635;56.696;13.002;2023-05-16T11:38:25;18.00;99.90
15072;DHT22;7635;56.696;13.002;2023-05-16T11:40:52;18.10;99.90
15072;DHT22;7635;56.696;13.002;2023-05-16T11:43:19;18.10;99.90
15072;DHT22;7635;56.696;13.002;2023-05-16T11:45:52;18.10;99.90
15072;DHT22;7635;56.696;13.002;2023-05-16T11:48:22;18.00;99.90
15072;DHT22;7635;56.696;13.002;2023-05-16T11:50:51;17.90;99.90
15072;DHT22;7635;56.696;13.002;2023-05-16T11:53:18;17.90;99.90
15072;DHT22;7635;56.696;13.002;2023-05-16T11:55:46;17.60;99.90
15072;DHT22;7635;56.696;13.002;2023-05-16T11:58:17;17.40;99.90
15072;DHT22;7635;56.696;13.002;2023-05-16T12:00:47;17.20;99.90
15072;DHT22;7635;56.696;13.002;2023-05-16T12:03:14;17.00;99.90
15072;DHT22;7635;56.696;13.002;2023-05-16T12:05:50;16.90;99.90
15072;DHT22;7635;56.696;13.002;2023-05-16T12:08:18;16.80;99.90
15072;DHT22;7635;56.696;13.002;2023-05-16T12:10:47;16.70;99.90
15072;DHT22;7635;56.696;13.002;2023-05-16T12:13:15;16.60;99.90
15072;DHT22;7635;56.696;13.002;2023-05-16T12:15:42;16.50;99.90
15072;DHT22;7635;56.696;13.002;2023-05-16T12:18:09;16.30;99.90
15072;DHT22;7635;56.696;13.002;2023-05-16T12:20:36;16.10;99.90
15072;DHT22;7635;56.696;13.002;2023-05-16T12:23:09;16.00;99.90
15072;DHT22;7635;56.696;13.002;2023-05-16T12:25:36;15.90;99.90
15072;DHT22;7635;56.696;13.002;2023-05-16T12:28:11;15.80;99.90
15072;DHT22;7635;56.696;13.002;2023-05-16T12:30:40;15.70;99.90
15072;DHT22;7635;56.696;13.002;2023-05-16T12:33:09;15.60;99.90
15072;DHT22;7635;56.696;13.002;2023-05-16T12:35:37;15.60;99.90
15072;DHT22;7635;56.696;13.002;2023-05-16T12:38:06;15.60;99.90
15072;DHT22;7635;56.696;13.002;2023-05-16T12:40:34;15.60;99.90
15072;DHT22;7635;56.696;13.002;2023-05-16T12:43:02;15.60;99.90
15072;DHT22;7635;56.696;13.002;2023-05-16T12:45:28;15.60;99.90
15072;DHT22;7635;56.696;13.002;2023-05-16T12:47:55;15.60;99.90
15072;DHT22;7635;56.696;13.002;2023-05-16T12:50:22;15.60;99.90
15072;DHT22;7635;56.696;13.002;2023-05-16T12:52:53;15.60;99.90
15072;DHT22;7635;56.696;13.002;2023-05-16T12:55:21;15.50;99.90
15072;DHT22;7635;56.696;13.002;2023-05-16T12:57:49;15.60;99.90
15072;DHT22;7635;56.696;13.002;2023-05-16T13:00:17;15.60;99.90
15072;DHT22;7635;56.696;13.002;2023-05-16T13:02:44;15.50;99.90
15072;DHT22;7635;56.696;13.002;2023-05-16T13:05:12;15.50;99.90
15072;DHT22;7635;56.696;13.002;2023-05-16T13:07:39;15.50;99.90
15072;DHT22;7635;56.696;13.002;2023-05-16T13:10:06;15.60;99.90
15072;DHT22;7635;56.696;13.002;2023-05-16T13:12:36;15.90;99.90
15072;DHT22;7635;56.696;13.002;2023-05-16T13:15:04;16.20;99.90
15072;DHT22;7635;56.696;13.002;2023-05-16T13:17:32;16.40;99.90
15072;DHT22;7635;56.696;13.002;2023-05-16T13:19:59;16.40;99.90
15072;DHT22;7635;56.696;13.002;2023-05-16T13:22:26;16.40;99.90
15072;DHT22;7635;56.696;13.002;2023-05-16T13:24:53;16.40;99.90
15072;DHT22;7635;56.696;13.002;2023-05-16T13:27:20;16.40;99.90
15072;DHT22;7635;56.696;13.002;2023-05-16T13:29:48;16.40;99.90
15072;DHT22;7635;56.696;13.002;2023-05-16T13:32:14;16.40;99.90
15072;DHT22;7635;56.696;13.002;2023-05-16T13:34:42;16.30;99.90
15072;DHT22;7635;56.696;13.002;2023-05-16T13:37:09;16.20;99.90
15072;DHT22;7635;56.696;13.002;2023-05-16T13:39:35;16.20;99.90
15072;DHT22;7635;56.696;13.002;2023-05-16T13:42:02;16.10;99.90
15072;DHT22;7635;56.696;13.002;2023-05-16T13:44:29;16.00;99.90
15072;DHT22;7635;56.696;13.002;2023-05-16T13:46:58;15.90;99.90
15072;DHT22;7635;56.696;13.002;2023-05-16T13:49:25;15.90;99.90
15072;DHT22;7635;56.696;13.002;2023-05-16T13:51:51;15.90;99.90
15072;DHT22;7635;56.696;13.002;2023-05-16T13:54:18;15.90;99.90
15072;DHT22;7635;56.696;13.002;2023-05-16T13:56:46;15.70;99.90
15072;DHT22;7635;56.696;13.002;2023-05-16T13:59:13;15.70;99.90
15072;DHT22;7635;56.696;13.002;2023-05-16T14:01:40;15.60;99.90
15072;DHT22;7635;56.696;13.002;2023-05-16T14:04:08;15.60;99.90
15072;DHT22;7635;56.696;13.002;2023-05-16T14:06:35;15.60;99.90
15072;DHT22;7635;56.696;13.002;2023-05-16T14:09:02;15.50;99.90
15072;DHT22;7635;56.696;13.002;2023-05-16T14:11:29;15.50;99.90
15072;DHT22;7635;56.696;13.002;2023-05-16T14:13:56;15.50;99.90
15072;DHT22;7635;56.696;13.002;2023-05-16T14:16:23;15.60;99.90
15072;DHT22;7635;56.696;13.002;2023-05-16T14:18:50;15.60;99.90
15072;DHT22;7635;56.696;13.002;2023-05-16T14:21:18;15.60;99.90
15072;DHT22;7635;56.696;13.002;2023-05-16T14:23:45;15.50;99.90
15072;DHT22;7635;56.696;13.002;2023-05-16T14:26:11;15.50;99.90
15072;DHT22;7635;56.696;13.002;2023-05-16T14:28:38;15.50;99.90
15072;DHT22;7635;56.696;13.002;2023-05-16T14:31:05;15.40;99.90
15072;DHT22;7635;56.696;13.002;2023-05-16T14:33:32;15.30;99.90
15072;DHT22;7635;56.696;13.002;2023-05-16T14:35:59;15.20;99.90
15072;DHT22;7635;56.696;13.002;2023-05-16T14:38:27;15.20;99.90
15072;DHT22;7635;56.696;13.002;2023-05-16T14:40:53;15.20;99.90
15072;DHT22;7635;56.696;13.002;2023-05-16T14:43:20;15.30;99.90
15072;DHT22;7635;56.696;13.002;2023-05-16T14:45:47;15.40;99.90
15072;DHT22;7635;56.696;13.002;2023-05-16T14:48:14;15.30;99.90
15072;DHT22;7635;56.696;13.002;2023-05-16T14:50:41;15.30;99.90
15072;DHT22;7635;56.696;13.002;2023-05-16T14:53:08;15.40;99.90
15072;DHT22;7635;56.696;13.002;2023-05-16T14:55:36;15.30;99.90
15072;DHT22;7635;56.696;13.002;2023-05-16T14:58:04;15.30;99.90
15072;DHT22;7635;56.696;13.002;2023-05-16T15:00:31;15.30;99.90
15072;DHT22;7635;56.696;13.002;2023-05-16T15:02:57;15.20;99.90
15072;DHT22;7635;56.696;13.002;2023-05-16T15:05:24;15.20;99.90
15072;DHT22;7635;56.696;13.002;2023-05-16T15:07:51;15.20;99.90
15072;DHT22;7635;56.696;13.002;2023-05-16T15:10:17;15.10;99.90
15072;DHT22;7635;56.696;13.002;2023-05-16T15:12:45;15.00;99.90
15072;DHT22;7635;56.696;13.002;2023-05-16T15:15:12;14.90;99.90
15072;DHT22;7635;56.696;13.002;2023-05-16T15:17:40;14.90;99.90
15072;DHT22;7635;56.696;13.002;2023-05-16T15:20:09;14.80;99.90
15072;DHT22;7635;56.696;13.002;2023-05-16T15:22:37;14.80;99.90
15072;DHT22;7635;56.696;13.002;2023-05-16T15:25:06;14.80;99.90
15072;DHT22;7635;56.696;13.002;2023-05-16T15:27:33;14.90;99.90
15072;DHT22;7635;56.696;13.002;2023-05-16T15:30:01;14.90;99.90
15072;DHT22;7635;56.696;13.002;2023-05-16T15:32:28;14.80;99.90
15072;DHT22;7635;56.696;13.002;2023-05-16T15:34:55;14.70;99.90
15072;DHT22;7635;56.696;13.002;2023-05-16T15:37:21;14.70;99.90